Time;durP1;ratioP1;P1;durP2;ratioP2;P2;SDS_P1;SDS_P2;PMS_P1;PMS_P2;Temp;Humidity;BMP_temperature;BMP_pressure;BME280_temperature;BME280_humidity;BME280_pressure;Samples;Min_cycle;Max_cycle;Signal;HPM_P1;HPM_P2
2023/07/19 00:01:33;;;;;;;6.83;6.33;;;17.10;99.90;;;;;;5103144;28;20188;-73
2023/07/19 00:03:59;;;;;;;7.20;5.40;;;17.10;99.90;;;;;;5114254;28;20218;-73
2023/07/19 00:06:25;;;;;;;6.17;5.30;;;17.10;99.90;;;;;;5096147;28;20639;-73
2023/07/19 00:08:50;;;;;;;7.80;4.53;;;17.00;99.90;;;;;;5113556;28;20184;-73
2023/07/19 00:11:16;;;;;;;9.27;5.70;;;17.00;99.90;;;;;;5111606;28;20192;-73
2023/07/19 00:13:42;;;;;;;6.13;5.30;;;16.90;99.90;;;;;;5113285;28;20181;-73
2023/07/19 00:16:07;;;;;;;7.10;6.60;;;17.00;99.90;;;;;;5113791;28;20659;-73
2023/07/19 00:18:33;;;;;;;8.23;4.60;;;16.90;99.90;;;;;;5114368;28;20172;-73
2023/07/19 00:20:59;;;;;;;5.03;4.53;;;16.90;99.90;;;;;;5113917;28;20192;-73
2023/07/19 00:23:25;;;;;;;5.83;5.33;;;16.80;99.90;;;;;;5113800;28;20184;-73
2023/07/19 00:25:50;;;;;;;4.67;4.27;;;16.80;99.90;;;;;;5113943;28;20659;-73
2023/07/19 00:28:16;;;;;;;5.40;4.80;;;16.80;99.90;;;;;;5095592;28;20674;-73
2023/07/19 00:30:42;;;;;;;5.33;4.63;;;16.80;99.90;;;;;;5108884;28;20197;-73
2023/07/19 00:33:07;;;;;;;7.13;5.00;;;16.80;99.90;;;;;;5093068;28;20211;-73
2023/07/19 00:35:33;;;;;;;5.90;4.63;;;16.70;99.90;;;;;;5075476;28;20222;-73
2023/07/19 00:37:59;;;;;;;6.97;4.53;;;16.70;99.90;;;;;;5093238;28;20218;-73
2023/07/19 00:40:24;;;;;;;5.00;4.60;;;16.70;99.90;;;;;;5093364;28;20194;-73
2023/07/19 00:42:57;;;;;;;4.90;4.60;;;16.70;99.90;;;;;;5092931;28;20253;-73
2023/07/19 00:45:26;;;;;;;4.93;4.53;;;16.70;99.90;;;;;;5093326;28;20174;-73
2023/07/19 00:47:55;;;;;;;6.17;5.57;;;16.70;99.90;;;;;;5094265;28;20541;-73
2023/07/19 00:50:21;;;;;;;5.17;4.77;;;16.70;99.90;;;;;;5093159;28;20189;-73
2023/07/19 00:52:48;;;;;;;8.87;5.27;;;16.70;99.90;;;;;;5092479;28;20261;-73
2023/07/19 00:55:14;;;;;;;6.10;5.50;;;16.70;99.90;;;;;;5092602;28;20532;-73
2023/07/19 00:57:39;;;;;;;6.13;5.63;;;16.70;99.90;;;;;;5093079;28;20174;-74
2023/07/19 01:00:06;;;;;;;5.77;4.80;;;16.60;99.90;;;;;;5092817;28;20197;-73
2023/07/19 01:02:32;;;;;;;5.33;4.83;;;16.60;99.90;;;;;;5091970;28;20534;-73
2023/07/19 01:04:58;;;;;;;5.10;4.80;;;16.60;99.90;;;;;;5093403;28;20188;-73
2023/07/19 01:07:24;;;;;;;6.13;5.10;;;16.60;99.90;;;;;;5093022;28;20174;-73
2023/07/19 01:09:50;;;;;;;4.70;4.40;;;16.60;99.90;;;;;;5093277;28;20212;-74
2023/07/19 01:12:17;;;;;;;5.47;4.93;;;16.50;99.90;;;;;;5092476;28;20197;-74
2023/07/19 01:14:42;;;;;;;5.37;4.87;;;16.50;99.90;;;;;;5092477;28;20633;-74
2023/07/19 01:17:08;;;;;;;5.93;5.43;;;16.50;99.90;;;;;;5074421;28;20264;-73
2023/07/19 01:19:34;;;;;;;5.90;5.30;;;16.50;99.90;;;;;;5092364;28;20181;-74
2023/07/19 01:22:00;;;;;;;7.60;6.83;;;16.50;99.90;;;;;;5092971;28;20541;-74
2023/07/19 01:24:25;;;;;;;5.97;5.47;;;16.40;99.90;;;;;;5091968;28;20174;-73
2023/07/19 01:26:51;;;;;;;6.00;4.93;;;16.30;99.90;;;;;;5093397;28;20173;-73
2023/07/19 01:29:17;;;;;;;5.60;5.10;;;16.30;99.90;;;;;;5091551;28;20280;-74
2023/07/19 01:31:43;;;;;;;6.20;5.80;;;16.40;99.90;;;;;;5092397;28;20763;-74
2023/07/19 01:34:08;;;;;;;5.93;4.67;;;16.50;99.90;;;;;;5092291;28;20172;-73
2023/07/19 01:36:34;;;;;;;5.80;5.17;;;16.50;99.90;;;;;;5073998;28;20714;-73
2023/07/19 01:38:59;;;;;;;4.70;4.30;;;16.60;99.90;;;;;;5092109;28;20189;-73
2023/07/19 01:41:25;;;;;;;5.20;4.80;;;16.60;99.90;;;;;;5092334;28;20235;-73
2023/07/19 01:43:51;;;;;;;6.30;4.50;;;16.60;99.90;;;;;;5091707;28;20169;-73
2023/07/19 01:46:17;;;;;;;5.37;4.40;;;16.50;99.90;;;;;;5092146;28;20182;-73
2023/07/19 01:48:42;;;;;;;5.37;4.97;;;16.60;99.90;;;;;;5092126;28;20169;-73
2023/07/19 01:51:08;;;;;;;5.43;5.03;;;16.50;99.90;;;;;;5091941;28;20177;-73
2023/07/19 01:53:34;;;;;;;5.37;4.90;;;16.50;99.90;;;;;;5100582;28;20520;-73
2023/07/19 01:55:59;;;;;;;4.83;4.43;;;16.50;99.90;;;;;;5112299;28;20172;-73
2023/07/19 01:58:25;;;;;;;6.20;5.60;;;16.50;99.90;;;;;;5112235;28;20169;-73
2023/07/19 02:00:53;;;;;;;5.57;5.10;;;16.40;99.90;;;;;;5111973;28;20189;-73
2023/07/19 02:03:19;;;;;;;6.83;4.50;;;16.40;99.90;;;;;;5112033;28;20198;-73
2023/07/19 02:05:54;;;;;;;5.10;4.67;;;16.30;99.90;;;;;;5112211;28;20189;-73
2023/07/19 02:08:20;;;;;;;5.40;5.00;;;16.30;99.90;;;;;;5112222;28;20174;-73
2023/07/19 02:10:45;;;;;;;5.23;4.67;;;16.30;99.90;;;;;;5099482;28;20639;-73
2023/07/19 02:13:11;;;;;;;4.90;4.47;;;16.30;99.90;;;;;;5091213;28;20201;-73
2023/07/19 02:15:36;;;;;;;5.30;4.60;;;16.30;99.90;;;;;;5091853;28;20174;-73
2023/07/19 02:18:02;;;;;;;7.03;5.47;;;16.20;99.90;;;;;;5103000;28;20226;-73
2023/07/19 02:20:28;;;;;;;6.27;5.67;;;16.10;99.90;;;;;;5123290;28;20177;-74
2023/07/19 02:22:53;;;;;;;6.20;5.60;;;16.00;99.90;;;;;;5111416;28;20252;-73
2023/07/19 02:25:19;;;;;;;5.43;4.93;;;16.00;99.90;;;;;;5111747;28;20186;-74
2023/07/19 02:27:45;;;;;;;5.97;5.33;;;15.90;99.90;;;;;;5111722;28;20176;-74
2023/07/19 02:30:11;;;;;;;6.07;5.57;;;15.90;99.90;;;;;;5111087;28;20203;-74
2023/07/19 02:32:38;;;;;;;6.73;5.60;;;15.90;99.90;;;;;;5111116;28;20256;-74
2023/07/19 02:35:04;;;;;;;7.07;5.83;;;15.80;99.90;;;;;;5111505;28;20176;-74
2023/07/19 02:37:29;;;;;;;6.83;6.13;;;15.80;99.90;;;;;;5111778;28;20165;-74
2023/07/19 02:39:55;;;;;;;8.90;6.43;;;15.90;99.90;;;;;;5111643;28;20214;-74
2023/07/19 02:42:21;;;;;;;6.70;6.10;;;15.90;99.90;;;;;;5111482;28;20164;-74
2023/07/19 02:44:46;;;;;;;6.20;5.60;;;16.10;99.90;;;;;;5109558;28;20180;-74
2023/07/19 02:47:12;;;;;;;6.40;5.20;;;16.20;99.90;;;;;;5093594;28;20169;-74
2023/07/19 02:49:40;;;;;;;5.63;4.90;;;16.30;99.90;;;;;;5111458;28;20185;-75
2023/07/19 02:52:06;;;;;;;4.67;4.27;;;16.40;99.90;;;;;;5111422;28;20211;-74
2023/07/19 02:54:31;;;;;;;5.30;4.70;;;16.50;99.90;;;;;;5111352;28;20524;-74
2023/07/19 02:56:57;;;;;;;5.77;4.80;;;16.60;99.90;;;;;;5111464;28;20179;-75
2023/07/19 02:59:23;;;;;;;9.60;5.53;;;16.70;99.90;;;;;;5111576;28;20271;-74
2023/07/19 03:01:48;;;;;;;5.33;4.83;;;16.70;99.90;;;;;;5111523;28;20177;-75
2023/07/19 03:04:14;;;;;;;5.97;5.37;;;16.70;99.90;;;;;;5111379;28;20284;-74
2023/07/19 03:06:40;;;;;;;6.17;4.90;;;16.90;99.90;;;;;;5111760;28;20173;-74
2023/07/19 03:09:06;;;;;;;6.33;5.57;;;17.00;99.90;;;;;;5111371;28;20238;-74
2023/07/19 03:11:32;;;;;;;5.20;4.80;;;17.10;99.90;;;;;;5099144;28;20228;-74
2023/07/19 03:13:57;;;;;;;6.63;5.50;;;17.10;99.90;;;;;;5090775;28;20165;-74
2023/07/19 03:16:23;;;;;;;5.93;5.10;;;17.20;99.90;;;;;;5091197;28;20169;-74
2023/07/19 03:18:48;;;;;;;5.90;4.77;;;17.20;99.90;;;;;;5090978;28;20242;-74
2023/07/19 03:21:14;;;;;;;5.27;4.87;;;17.30;99.90;;;;;;5090919;28;20173;-74
2023/07/19 03:23:40;;;;;;;5.40;5.00;;;17.30;99.90;;;;;;5090716;28;20266;-74
2023/07/19 03:26:07;;;;;;;5.13;4.63;;;17.40;99.90;;;;;;5072633;28;20283;-74
2023/07/19 03:28:32;;;;;;;7.43;4.97;;;17.40;99.90;;;;;;5090991;28;20227;-73
2023/07/19 03:30:58;;;;;;;5.77;5.17;;;17.40;99.90;;;;;;5090716;28;20186;-73
2023/07/19 03:33:25;;;;;;;5.10;4.60;;;17.30;99.90;;;;;;5090715;28;20243;-74
2023/07/19 03:35:51;;;;;;;6.03;5.47;;;17.20;99.90;;;;;;5090735;28;20201;-74
2023/07/19 03:38:18;;;;;;;5.80;5.30;;;17.30;99.90;;;;;;5072882;28;20262;-74
2023/07/19 03:40:44;;;;;;;6.80;5.47;;;17.30;99.90;;;;;;5090796;28;20193;-74
2023/07/19 03:43:10;;;;;;;7.47;5.70;;;17.20;99.90;;;;;;5094533;28;20658;-74
2023/07/19 03:45:36;;;;;;;7.40;6.70;;;17.10;99.90;;;;;;5114372;28;20191;-73
2023/07/19 03:48:02;;;;;;;6.67;6.13;;;17.10;99.90;;;;;;5114663;28;20181;-73
2023/07/19 03:50:27;;;;;;;6.77;6.27;;;17.10;99.90;;;;;;5114767;28;20200;-74
2023/07/19 03:52:53;;;;;;;6.80;6.07;;;17.10;99.90;;;;;;5114160;28;20199;-73
2023/07/19 03:55:18;;;;;;;6.80;5.57;;;17.00;99.90;;;;;;5114386;28;20177;-74
2023/07/19 03:57:44;;;;;;;7.60;5.93;;;17.00;99.90;;;;;;5114789;28;20165;-73
2023/07/19 04:00:10;;;;;;;6.37;5.77;;;16.90;99.90;;;;;;5094567;28;20197;-73
2023/07/19 04:02:35;;;;;;;5.77;5.20;;;16.90;99.90;;;;;;5114288;28;20169;-73
2023/07/19 04:05:01;;;;;;;7.00;6.40;;;17.00;99.90;;;;;;5114342;28;20169;-73
2023/07/19 04:07:27;;;;;;;7.40;6.40;;;17.00;99.90;;;;;;5114816;28;20640;-73
2023/07/19 04:09:52;;;;;;;7.03;6.50;;;17.00;99.90;;;;;;5095841;28;20220;-73
2023/07/19 04:12:18;;;;;;;9.43;6.67;;;16.90;99.90;;;;;;5114199;28;20292;-74
2023/07/19 04:14:44;;;;;;;6.57;5.63;;;16.90;99.90;;;;;;5112618;28;20680;-74
2023/07/19 04:17:10;;;;;;;6.70;5.83;;;16.70;99.90;;;;;;5113578;28;20200;-73
2023/07/19 04:19:36;;;;;;;6.23;5.63;;;16.70;99.90;;;;;;5114405;28;20192;-73
2023/07/19 04:22:01;;;;;;;9.33;5.33;;;16.60;99.90;;;;;;5114562;28;20525;-74
2023/07/19 04:24:27;;;;;;;6.57;5.93;;;16.80;99.90;;;;;;5113167;28;20173;-74
2023/07/19 04:26:53;;;;;;;7.50;6.23;;;16.80;99.90;;;;;;5114024;28;20204;-73
2023/07/19 04:29:19;;;;;;;10.53;6.13;;;16.90;99.90;;;;;;5094100;28;20279;-73
2023/07/19 04:31:45;;;;;;;6.70;5.97;;;17.10;99.90;;;;;;5113790;28;20381;-74
2023/07/19 04:34:11;;;;;;;9.93;6.27;;;17.20;99.90;;;;;;5113514;28;20230;-73
2023/07/19 04:36:36;;;;;;;7.13;6.53;;;17.30;99.90;;;;;;5113971;28;20176;-73
2023/07/19 04:39:02;;;;;;;8.03;6.47;;;17.50;99.90;;;;;;5113595;28;20234;-74
2023/07/19 04:41:28;;;;;;;7.40;6.63;;;17.60;99.90;;;;;;5114010;28;20168;-73
2023/07/19 04:43:53;;;;;;;5.97;5.47;;;17.80;99.90;;;;;;5113337;28;20223;-75
2023/07/19 04:46:21;;;;;;;5.80;5.23;;;17.80;99.90;;;;;;5112082;28;20169;-74
2023/07/19 04:48:47;;;;;;;7.17;6.67;;;17.80;99.90;;;;;;5113634;28;20256;-74
2023/07/19 04:51:12;;;;;;;6.97;6.40;;;17.70;99.90;;;;;;5113444;28;20221;-75
2023/07/19 04:53:38;;;;;;;7.33;6.23;;;17.80;99.90;;;;;;5113039;28;20176;-74
2023/07/19 04:56:04;;;;;;;6.23;5.77;;;17.80;99.90;;;;;;5113330;28;20173;-74
2023/07/19 04:58:29;;;;;;;5.70;5.20;;;17.80;99.90;;;;;;5113438;28;20172;-74
2023/07/19 05:00:55;;;;;;;6.03;5.27;;;17.90;99.90;;;;;;5111508;28;20193;-74
2023/07/19 05:03:22;;;;;;;6.80;6.03;;;18.00;99.90;;;;;;5112837;28;20177;-74
2023/07/19 05:05:47;;;;;;;8.70;6.63;;;18.20;99.90;;;;;;5113297;28;20165;-74
2023/07/19 05:08:13;;;;;;;6.23;5.63;;;18.40;99.90;;;;;;5113231;28;20180;-74
2023/07/19 05:10:39;;;;;;;6.10;5.50;;;18.60;99.90;;;;;;5113064;28;20287;-75
2023/07/19 05:13:05;;;;;;;9.97;5.57;;;18.80;99.90;;;;;;5112703;28;20316;-74
2023/07/19 05:15:32;;;;;;;7.82;5.15;;;19.00;99.90;;;;;;5112895;28;20201;-73
2023/07/19 05:17:58;;;;;;;11.25;8.13;;;19.20;99.90;;;;;;5111202;28;20165;-74
2023/07/19 05:20:24;;;;;;;8.10;6.80;;;19.30;99.90;;;;;;5112750;28;20199;-74
2023/07/19 05:22:49;;;;;;;6.80;6.30;;;19.30;99.90;;;;;;5112666;28;20165;-74
2023/07/19 05:25:15;;;;;;;6.23;5.60;;;19.30;99.90;;;;;;5112949;28;20198;-74
2023/07/19 05:27:41;;;;;;;8.38;5.78;;;19.20;99.90;;;;;;5112955;28;20173;-74
2023/07/19 05:30:07;;;;;;;6.80;5.50;;;19.20;99.90;;;;;;5112499;28;20587;-73
2023/07/19 05:32:33;;;;;;;6.85;6.10;;;19.20;99.90;;;;;;5096505;28;20201;-74
2023/07/19 05:34:58;;;;;;;15.25;5.90;;;19.30;99.90;;;;;;5092160;28;20180;-73
2023/07/19 05:37:24;;;;;;;6.10;5.30;;;19.30;99.90;;;;;;5092386;28;20170;-74
2023/07/19 05:39:50;;;;;;;9.40;4.80;;;19.30;99.90;;;;;;5092558;28;20539;-74
2023/07/19 05:42:16;;;;;;;7.90;5.40;;;19.30;99.90;;;;;;5092204;28;20256;-74
2023/07/19 05:44:41;;;;;;;5.13;4.63;;;19.30;99.90;;;;;;5098077;28;20184;-73
2023/07/19 05:47:07;;;;;;;5.03;4.53;;;19.30;99.90;;;;;;5105941;28;20573;-72
2023/07/19 05:49:33;;;;;;;7.88;5.47;;;19.40;99.90;;;;;;5106796;28;20594;-72
2023/07/19 05:51:59;;;;;;;6.20;4.95;;;19.40;99.90;;;;;;5112188;28;20401;-72
2023/07/19 05:54:25;;;;;;;9.67;5.83;;;19.30;99.90;;;;;;5111924;28;20675;-72
2023/07/19 05:56:50;;;;;;;7.22;5.72;;;19.30;99.90;;;;;;5109302;28;20169;-72
2023/07/19 05:59:16;;;;;;;10.90;6.00;;;19.30;99.90;;;;;;5091844;28;20265;-72
2023/07/19 06:01:42;;;;;;;8.45;5.38;;;19.40;99.90;;;;;;5091867;28;20166;-73
2023/07/19 06:04:09;;;;;;;7.80;6.27;;;19.40;99.90;;;;;;5091349;28;20239;-73
2023/07/19 06:06:34;;;;;;;9.43;5.22;;;19.60;99.90;;;;;;5091526;28;20568;-72
2023/07/19 06:09:05;;;;;;;6.53;5.78;;;19.70;99.90;;;;;;5090466;28;20217;-72
2023/07/19 06:11:32;;;;;;;8.43;6.07;;;19.80;99.90;;;;;;5090655;28;20192;-73
2023/07/19 06:13:58;;;;;;;7.72;5.60;;;19.90;99.90;;;;;;5090601;28;20173;-72
2023/07/19 06:16:25;;;;;;;12.65;6.75;;;19.90;99.90;;;;;;5072902;28;20165;-72
2023/07/19 06:18:50;;;;;;;8.10;5.05;;;19.90;99.90;;;;;;5091557;28;20173;-72
2023/07/19 06:21:16;;;;;;;6.45;5.82;;;20.00;99.90;;;;;;5091469;28;20173;-72
2023/07/19 06:23:42;;;;;;;8.80;5.82;;;20.10;99.90;;;;;;5107440;28;20229;-73
2023/07/19 06:26:08;;;;;;;8.05;6.60;;;20.20;99.90;;;;;;5111696;28;20204;-72
2023/07/19 06:28:35;;;;;;;8.52;6.38;;;20.20;99.90;;;;;;5111935;28;20173;-72
2023/07/19 06:31:01;;;;;;;7.80;7.00;;;20.40;99.90;;;;;;5111416;28;20184;-72
2023/07/19 06:33:31;;;;;;;7.95;6.20;;;20.50;99.90;;;;;;5111503;28;20475;-73
2023/07/19 06:35:57;;;;;;;8.30;7.32;;;20.50;99.90;;;;;;5111628;28;20582;-73
2023/07/19 06:38:24;;;;;;;8.23;7.57;;;20.60;99.90;;;;;;5111967;28;20540;-72
2023/07/19 06:40:49;;;;;;;6.55;5.95;;;20.70;99.90;;;;;;5111842;28;20181;-72
2023/07/19 06:43:15;;;;;;;9.85;6.72;;;20.70;99.90;;;;;;5097305;28;20185;-72
2023/07/19 06:45:40;;;;;;;14.75;6.32;;;20.90;99.90;;;;;;5091558;28;20169;-72
2023/07/19 06:48:06;;;;;;;7.72;5.65;;;21.00;99.90;;;;;;5091370;28;20173;-72
2023/07/19 06:50:32;;;;;;;7.47;5.78;;;21.10;99.90;;;;;;5091487;28;20267;-72
2023/07/19 06:52:59;;;;;;;9.38;5.78;;;21.30;99.90;;;;;;5090614;28;20368;-72
2023/07/19 06:55:25;;;;;;;8.02;6.55;;;21.50;99.90;;;;;;5091307;28;20166;-73
2023/07/19 06:57:51;;;;;;;8.82;4.97;;;21.60;99.90;;;;;;5091017;28;20248;-72
2023/07/19 07:00:17;;;;;;;9.45;5.32;;;21.80;99.90;;;;;;5091120;28;20610;-73
2023/07/19 07:02:43;;;;;;;9.52;8.57;;;21.80;99.90;;;;;;5090761;28;20173;-74
2023/07/19 07:05:10;;;;;;;9.60;6.10;;;22.10;99.90;;;;;;5090754;28;20166;-74
2023/07/19 07:07:37;;;;;;;6.28;5.72;;;22.50;99.90;;;;;;5101284;28;20271;-73
2023/07/19 07:10:05;;;;;;;7.25;5.10;;;22.90;99.90;;;;;;5110090;28;20222;-74
2023/07/19 07:12:31;;;;;;;7.75;4.88;;;22.90;99.90;;;;;;5111022;28;20199;-74
2023/07/19 07:14:56;;;;;;;13.07;5.63;;;22.90;99.90;;;;;;5110919;28;20236;-74
2023/07/19 07:17:22;;;;;;;5.20;4.70;;;23.00;99.90;;;;;;5111480;28;20161;-74
2023/07/19 07:19:48;;;;;;;7.70;5.35;;;23.00;99.90;;;;;;5111235;28;20189;-74
2023/07/19 07:22:13;;;;;;;4.93;4.40;;;23.10;99.90;;;;;;5115067;28;20191;-72
2023/07/19 07:24:40;;;;;;;6.85;5.15;;;23.00;99.90;;;;;;5096229;28;20689;-73
2023/07/19 07:27:06;;;;;;;5.95;5.45;;;22.90;99.90;;;;;;5114824;28;20180;-74
2023/07/19 07:29:31;;;;;;;6.22;5.63;;;22.90;99.90;;;;;;5096096;28;20199;-74
2023/07/19 07:31:57;;;;;;;5.47;4.60;;;22.90;99.90;;;;;;5114714;28;20197;-74
2023/07/19 07:34:24;;;;;;;9.05;6.25;;;23.00;99.90;;;;;;5114808;28;20222;-74
2023/07/19 07:36:50;;;;;;;6.63;6.07;;;23.20;99.90;;;;;;5114896;28;20172;-73
2023/07/19 07:39:15;;;;;;;8.27;4.43;;;23.60;99.90;;;;;;5113054;28;20181;-73
2023/07/19 07:41:41;;;;;;;7.72;4.68;;;24.00;99.90;;;;;;5096097;28;20246;-74
2023/07/19 07:44:06;;;;;;;6.03;5.18;;;24.40;99.90;;;;;;5092114;28;20201;-74
2023/07/19 07:46:32;;;;;;;9.10;5.15;;;24.90;99.90;;;;;;5094505;28;20540;-72
2023/07/19 07:48:59;;;;;;;5.43;4.00;;;25.10;99.90;;;;;;5094043;28;20173;-71
2023/07/19 07:51:27;;;;;;;6.10;4.28;;;24.80;99.90;;;;;;5094372;28;20568;-72
2023/07/19 07:53:53;;;;;;;5.25;4.38;;;24.70;99.90;;;;;;5093921;28;20256;-72
2023/07/19 07:56:18;;;;;;;10.10;4.50;;;24.70;99.90;;;;;;5095420;28;20444;-73
2023/07/19 07:58:44;;;;;;;6.93;5.22;;;24.40;99.90;;;;;;5075615;28;20200;-73
2023/07/19 08:01:10;;;;;;;7.78;4.60;;;24.10;99.90;;;;;;5094310;28;20223;-73
2023/07/19 08:03:35;;;;;;;8.93;4.90;;;23.90;99.90;;;;;;5093832;28;20212;-73
2023/07/19 08:06:04;;;;;;;7.75;4.40;;;23.80;99.90;;;;;;5093942;28;20636;-73
2023/07/19 08:08:30;;;;;;;7.55;4.05;;;23.80;99.90;;;;;;5093812;28;20180;-73
2023/07/19 08:10:56;;;;;;;4.43;4.05;;;23.80;99.90;;;;;;5075599;28;20363;-73
2023/07/19 08:13:21;;;;;;;7.88;4.57;;;24.00;99.90;;;;;;5094706;28;20695;-73
2023/07/19 08:15:48;;;;;;;5.55;4.25;;;24.20;99.90;;;;;;5093040;28;20641;-73
2023/07/19 08:18:13;;;;;;;5.10;3.63;;;24.30;99.90;;;;;;5113778;28;20176;-72
2023/07/19 08:20:40;;;;;;;4.07;3.47;;;24.20;99.90;;;;;;5113917;28;20184;-72
2023/07/19 08:23:05;;;;;;;6.93;3.83;;;24.20;99.90;;;;;;5113774;28;20660;-72
2023/07/19 08:25:32;;;;;;;4.95;3.80;;;24.00;99.90;;;;;;5114215;28;20180;-73
2023/07/19 08:27:58;;;;;;;5.25;4.72;;;23.70;99.90;;;;;;5095622;28;20394;-74
2023/07/19 08:30:23;;;;;;;16.60;4.93;;;23.40;99.90;;;;;;5095666;28;20280;-73
2023/07/19 08:32:49;;;;;;;3.53;3.33;;;23.30;99.90;;;;;;5104854;28;20192;-72
2023/07/19 08:35:16;;;;;;;4.40;4.20;;;23.20;99.90;;;;;;5102989;28;20177;-74
2023/07/19 08:37:43;;;;;;;3.95;3.75;;;23.10;99.90;;;;;;5095425;28;20173;-74
2023/07/19 08:40:12;;;;;;;5.20;4.72;;;22.90;99.90;;;;;;5093291;28;20193;-74
2023/07/19 08:42:39;;;;;;;4.88;4.68;;;23.00;99.90;;;;;;5092796;28;20180;-74
2023/07/19 08:45:08;;;;;;;4.22;4.03;;;23.10;99.90;;;;;;5093148;28;20181;-75
2023/07/19 08:47:37;;;;;;;6.65;6.15;;;23.30;99.90;;;;;;5093091;28;20169;-74
2023/07/19 08:50:07;;;;;;;5.03;4.82;;;23.40;99.90;;;;;;5092948;28;20197;-74
2023/07/19 08:52:33;;;;;;;7.75;4.03;;;23.60;99.90;;;;;;5074786;28;20216;-74
2023/07/19 08:55:00;;;;;;;10.30;4.85;;;23.70;99.90;;;;;;5093645;28;20251;-74
2023/07/19 08:57:26;;;;;;;9.45;4.40;;;23.90;99.90;;;;;;5100748;28;20539;-74
2023/07/19 08:59:51;;;;;;;14.27;5.10;;;24.20;99.90;;;;;;5113142;28;20180;-73
2023/07/19 09:02:17;;;;;;;4.07;3.72;;;24.10;99.90;;;;;;5113136;28;20664;-74
2023/07/19 09:05:09;;;;;;;8.77;4.20;;;24.10;99.90;;;;;;5103761;28;20231;-74
2023/07/19 09:07:36;;;;;;;4.70;3.80;;;24.30;99.90;;;;;;5092768;28;20644;-74
2023/07/19 09:10:03;;;;;;;6.10;4.22;;;24.50;99.90;;;;;;5106605;28;20682;-74
2023/07/19 09:12:43;;;;;;;4.55;3.35;;;24.60;99.90;;;;;;5093782;28;20249;-74
2023/07/19 09:15:11;;;;;;;7.63;4.28;;;24.70;99.90;;;;;;5112108;28;20175;-74
2023/07/19 09:17:41;;;;;;;4.18;3.83;;;24.60;99.90;;;;;;5110813;28;20640;-74
2023/07/19 09:20:07;;;;;;;7.22;4.65;;;24.30;99.90;;;;;;5094633;28;20190;-74
2023/07/19 09:22:37;;;;;;;7.47;4.80;;;24.10;99.90;;;;;;5096182;28;20221;-75
2023/07/19 09:25:04;;;;;;;4.75;4.10;;;24.10;99.90;;;;;;5111836;28;20186;-74
2023/07/19 09:27:31;;;;;;;6.47;4.25;;;24.00;99.90;;;;;;5094641;28;20522;-74
2023/07/19 09:29:56;;;;;;;5.18;4.75;;;24.00;99.90;;;;;;5112580;28;20232;-74
2023/07/19 09:32:23;;;;;;;5.13;3.85;;;24.00;99.90;;;;;;5112411;28;20227;-74
2023/07/19 09:34:54;;;;;;;5.90;4.25;;;24.20;99.90;;;;;;5112430;28;20304;-74
2023/07/19 09:37:21;;;;;;;7.78;4.03;;;24.40;99.90;;;;;;5112524;28;20217;-74
2023/07/19 09:39:46;;;;;;;5.90;3.88;;;24.50;99.90;;;;;;5112526;28;20189;-74
2023/07/19 09:42:13;;;;;;;6.60;4.05;;;24.60;99.90;;;;;;5093521;28;20180;-74
2023/07/19 09:44:39;;;;;;;5.68;4.57;;;25.20;99.90;;;;;;5080282;28;20177;-74
2023/07/19 09:47:10;;;;;;;6.20;4.32;;;25.60;99.90;;;;;;5091811;28;20184;-74
2023/07/19 09:49:36;;;;;;;5.38;4.00;;;25.60;99.90;;;;;;5092242;28;20664;-74
2023/07/19 09:52:03;;;;;;;6.70;4.47;;;25.80;99.90;;;;;;5091829;28;20203;-74
2023/07/19 09:54:33;;;;;;;5.88;4.43;;;26.10;99.90;;;;;;5102375;28;20177;-74
2023/07/19 09:57:02;;;;;;;9.45;3.80;;;26.60;99.90;;;;;;5112241;28;20169;-74
2023/07/19 09:59:33;;;;;;;5.88;3.70;;;27.20;99.90;;;;;;5111983;28;20226;-75
2023/07/19 10:01:58;;;;;;;10.88;5.13;;;27.80;99.90;;;;;;5092341;28;20188;-74
2023/07/19 10:04:29;;;;;;;6.85;4.47;;;28.60;99.90;;;;;;5091411;28;20176;-74
2023/07/19 10:07:18;;;;;;;9.40;4.20;;;28.70;99.90;;;;;;5093426;28;20161;-74
2023/07/19 10:09:45;;;;;;;7.68;4.18;;;28.60;99.90;;;;;;5088717;28;20287;-74
2023/07/19 10:12:16;;;;;;;9.65;4.85;;;29.00;99.90;;;;;;5105664;28;20209;-74
2023/07/19 10:14:52;;;;;;;8.27;4.18;;;29.30;99.90;;;;;;5106035;28;20176;-74
2023/07/19 10:17:17;;;;;;;7.38;4.18;;;29.10;99.90;;;;;;5109788;28;20172;-72
2023/07/19 10:20:15;;;;;;;5.95;4.32;;;29.20;99.90;;;;;;5073328;28;20196;-73
2023/07/19 10:22:55;;;;;;;8.60;5.32;;;29.60;99.90;;;;;;5091309;28;20182;-72
2023/07/19 10:25:29;;;;;;;6.32;4.40;;;30.00;99.90;;;;;;5091443;28;20644;-74
2023/07/19 10:28:25;;;;;;;7.53;4.45;;;30.30;99.90;;;;;;5091454;28;20173;-74
2023/07/19 10:30:58;;;;;;;6.30;4.18;;;30.70;99.90;;;;;;5105099;28;20192;-72
2023/07/19 10:33:29;;;;;;;7.20;4.53;;;30.90;99.90;;;;;;5111225;28;20200;-74
2023/07/19 10:36:03;;;;;;;7.82;4.53;;;30.50;99.90;;;;;;5111593;28;20165;-74
2023/07/19 10:38:30;;;;;;;6.90;4.93;;;30.20;99.90;;;;;;5111837;28;20168;-73
2023/07/19 10:41:04;;;;;;;7.47;5.05;;;29.70;99.90;;;;;;5111410;28;20185;-74
2023/07/19 10:43:31;;;;;;;7.97;4.88;;;29.40;99.90;;;;;;5093208;28;20648;-74
2023/07/19 10:46:03;;;;;;;9.38;4.78;;;29.30;99.90;;;;;;5093120;28;20177;-73
2023/07/19 10:48:31;;;;;;;7.47;4.57;;;29.10;99.90;;;;;;5087289;28;20201;-74
2023/07/19 10:50:58;;;;;;;7.35;4.55;;;28.80;99.90;;;;;;5108327;28;20220;-73
2023/07/19 10:53:24;;;;;;;5.65;4.20;;;28.50;99.90;;;;;;5092080;28;20296;-74
2023/07/19 10:55:58;;;;;;;5.75;3.83;;;28.40;99.90;;;;;;5077101;28;20185;-74
2023/07/19 10:58:24;;;;;;;7.90;3.90;;;28.60;99.90;;;;;;5103493;28;20172;-74
2023/07/19 11:00:51;;;;;;;6.40;5.32;;;28.90;99.90;;;;;;5115085;28;20279;-74
2023/07/19 11:03:17;;;;;;;6.68;4.15;;;28.70;99.90;;;;;;5115263;28;20539;-74
2023/07/19 11:05:47;;;;;;;6.20;3.90;;;28.20;99.90;;;;;;5099191;28;20183;-74
2023/07/19 11:08:26;;;;;;;5.55;3.80;;;28.20;99.90;;;;;;5107506;28;20180;-74
2023/07/19 11:10:54;;;;;;;4.07;3.25;;;28.40;99.90;;;;;;5094907;28;20243;-72
2023/07/19 11:13:22;;;;;;;6.05;4.40;;;28.80;99.90;;;;;;5104649;28;20197;-74
2023/07/19 11:15:50;;;;;;;7.45;3.67;;;29.10;99.90;;;;;;5101375;28;20183;-74
2023/07/19 11:18:36;;;;;;;5.38;3.70;;;29.50;99.90;;;;;;5094696;28;20297;-74
2023/07/19 11:21:02;;;;;;;4.60;3.40;;;30.00;99.90;;;;;;5099077;28;20198;-74
2023/07/19 11:23:28;;;;;;;3.65;3.35;;;30.00;99.90;;;;;;5104997;28;20271;-73
2023/07/19 11:26:08;;;;;;;4.95;2.97;;;30.30;99.90;;;;;;5112827;28;20573;-73
2023/07/19 11:28:48;;;;;;;9.73;4.70;;;30.30;99.90;;;;;;5095565;28;20229;-74
2023/07/19 11:31:33;;;;;;;5.13;4.65;;;30.10;99.90;;;;;;5094291;28;20265;-74
2023/07/19 11:34:08;;;;;;;6.03;4.30;;;29.30;99.90;;;;;;5100984;28;20367;-72
2023/07/19 11:36:38;;;;;;;5.20;3.50;;;29.10;99.90;;;;;;5114651;28;20203;-73
2023/07/19 11:39:04;;;;;;;4.32;3.95;;;29.50;99.90;;;;;;5112975;28;20200;-73
2023/07/19 11:41:31;;;;;;;3.88;3.13;;;29.60;99.90;;;;;;5111573;28;20188;-72
2023/07/19 11:43:57;;;;;;;7.05;2.95;;;29.20;99.90;;;;;;5113275;28;20193;-73
2023/07/19 11:46:23;;;;;;;3.72;3.42;;;29.00;99.90;;;;;;5096245;28;20182;-72
2023/07/19 11:48:49;;;;;;;4.68;3.05;;;29.00;99.90;;;;;;5098191;28;20166;-72
2023/07/19 11:51:15;;;;;;;3.60;3.30;;;28.90;99.90;;;;;;5096356;28;20180;-72
2023/07/19 11:53:41;;;;;;;4.53;3.30;;;29.00;99.90;;;;;;5112231;28;20200;-71
2023/07/19 11:56:07;;;;;;;4.03;3.78;;;29.40;99.90;;;;;;5114660;28;20543;-70
2023/07/19 11:58:35;;;;;;;8.52;5.18;;;29.70;99.90;;;;;;5109866;28;20170;-73
2023/07/19 12:01:02;;;;;;;5.00;3.47;;;29.40;99.90;;;;;;5094401;28;20544;-72
2023/07/19 12:03:28;;;;;;;5.13;3.67;;;28.90;99.90;;;;;;5105255;28;20180;-72
2023/07/19 12:05:53;;;;;;;3.05;2.80;;;28.40;99.90;;;;;;5106720;28;20165;-71
2023/07/19 12:08:19;;;;;;;4.97;3.40;;;28.10;99.90;;;;;;5101443;28;20527;-72
2023/07/19 12:10:45;;;;;;;4.70;3.28;;;28.40;99.90;;;;;;5114054;28;20252;-71
2023/07/19 12:13:10;;;;;;;4.05;3.53;;;28.60;99.90;;;;;;5114188;28;20279;-71
2023/07/19 12:15:36;;;;;;;3.03;2.83;;;28.70;99.90;;;;;;5114439;28;20222;-71
2023/07/19 12:18:02;;;;;;;4.53;3.10;;;28.50;99.90;;;;;;5114386;28;20179;-70
2023/07/19 12:20:27;;;;;;;3.60;3.30;;;28.50;99.90;;;;;;5114299;28;20234;-69
2023/07/19 12:22:53;;;;;;;3.83;3.15;;;28.40;99.90;;;;;;5113837;28;20176;-70
2023/07/19 12:25:19;;;;;;;5.18;3.53;;;28.20;99.90;;;;;;5113604;28;20173;-70
2023/07/19 12:27:46;;;;;;;3.42;3.15;;;28.20;99.90;;;;;;5114144;28;20237;-70
2023/07/19 12:30:12;;;;;;;5.63;3.55;;;28.20;99.90;;;;;;5114242;28;20189;-69
2023/07/19 12:32:38;;;;;;;4.05;3.70;;;28.00;99.90;;;;;;5113816;28;20211;-69
2023/07/19 12:35:05;;;;;;;5.75;3.00;;;27.70;99.90;;;;;;5113853;28;20169;-69
2023/07/19 12:37:33;;;;;;;5.68;3.17;;;27.40;99.90;;;;;;5114106;28;20180;-70
2023/07/19 12:39:58;;;;;;;4.35;2.92;;;27.40;99.90;;;;;;5113777;28;20185;-70
2023/07/19 12:42:25;;;;;;;6.82;2.90;;;27.40;99.90;;;;;;5113623;28;20179;-68
2023/07/19 12:44:51;;;;;;;4.22;3.83;;;27.40;99.90;;;;;;5113610;28;20182;-70